METARs


 

Curacao


TNCC 211000Z 10010KT 9999 SCT018 28/23 Q1012 NOSIG=

 

Aruba


TNCA 211000Z 08009KT 9999 FEW017 28/23 Q1011 NOSIG

 

Bonaire


TNCB 210955Z AUTO 08009KT 9999 NCD 27/23 Q1011

 

 

TAFs


 

Curacao


TAF TNCC 210515Z 2106/2206 11010KT 9999 SCT018 TEMPO 2106/2115 5000 SHRA BKN014

Aruba


TAF TAF TNCA 210600Z 2106/2206 10012KT 9999 SCT018 TEMPO 2106/2112 BKN014

Bonaire


TAF TAF COR TNCB 210509Z 2106/2212 09012KT 9999 FEW020 PROB30 TEMPO 2106/2112 6000 SHRA SCT018CB BKN020 PROB30 TEMPO 2206/2212 6000 SHRA SCT018CB BKN020

 

 

Caribbean Surface Analysis